createdAt,value
2022-10-05T00:00:00.711Z,0.98
2022-10-05T00:03:27.676Z,1.00
2022-10-05T00:06:51.722Z,0.80
2022-10-05T00:10:16.634Z,0.90
2022-10-05T00:13:44.697Z,1.15
2022-10-05T00:17:08.680Z,1.27
2022-10-05T00:20:39.693Z,1.00
2022-10-05T00:24:03.660Z,0.88
2022-10-05T00:27:36.757Z,1.10
2022-10-05T00:31:00.678Z,1.10
2022-10-05T00:34:24.706Z,0.88
2022-10-05T00:37:41.718Z,0.90
2022-10-05T00:41:27.701Z,0.90
2022-10-05T00:45:05.716Z,1.00
2022-10-05T00:49:01.736Z,0.98
2022-10-05T00:52:43.700Z,1.00
2022-10-05T00:56:16.681Z,0.88
2022-10-05T00:59:59.749Z,1.00
2022-10-05T01:03:35.688Z,0.70
2022-10-05T01:07:12.768Z,0.93
2022-10-05T01:10:39.728Z,1.00
2022-10-05T01:14:12.726Z,0.88
2022-10-05T01:17:47.742Z,1.10
2022-10-05T01:21:23.741Z,0.90
2022-10-05T01:24:49.726Z,1.10
2022-10-05T01:28:35.805Z,1.15
2022-10-05T01:32:20.732Z,1.00
2022-10-05T01:35:56.666Z,1.10
2022-10-05T01:39:45.756Z,0.90
2022-10-05T01:43:24.751Z,0.90
2022-10-05T01:46:49.040Z,1.10
2022-10-05T01:50:20.357Z,0.90
2022-10-05T01:53:49.768Z,1.10
2022-10-05T01:57:31.701Z,1.35
2022-10-05T02:01:04.813Z,1.30
2022-10-05T02:05:00.458Z,1.55
2022-10-05T02:08:22.796Z,1.25
2022-10-05T02:11:47.741Z,1.17
2022-10-05T02:15:15.750Z,1.20
2022-10-05T02:18:46.781Z,1.10
2022-10-05T02:22:17.734Z,1.20
2022-10-05T02:25:57.767Z,1.63
2022-10-05T02:29:28.774Z,1.17
2022-10-05T02:33:19.836Z,1.20
2022-10-05T02:36:50.751Z,1.20
2022-10-05T02:40:33.819Z,1.00
2022-10-05T02:47:37.755Z,1.20
2022-10-05T02:51:24.780Z,2.05
2022-10-05T02:55:39.774Z,2.08
2022-10-05T02:59:31.790Z,1.75
2022-10-05T03:03:15.758Z,1.10
2022-10-05T03:10:24.822Z,1.70
2022-10-05T03:14:08.727Z,1.70
2022-10-05T03:17:37.778Z,1.00
2022-10-05T03:21:02.799Z,1.35
2022-10-05T03:24:55.798Z,1.40
2022-10-05T03:28:47.776Z,1.40
2022-10-05T03:32:47.736Z,1.65
2022-10-05T03:36:38.764Z,1.30
2022-10-05T03:40:24.799Z,3.25
2022-10-05T03:44:31.752Z,1.50
2022-10-05T03:48:28.791Z,1.80
2022-10-05T03:52:00.757Z,1.83
2022-10-05T03:55:47.739Z,2.00
2022-10-05T03:59:32.753Z,2.50
2022-10-05T04:03:04.886Z,2.17
2022-10-05T04:06:47.959Z,2.08
2022-10-05T04:13:54.778Z,2.53
2022-10-05T04:17:30.757Z,2.10
2022-10-05T04:21:01.779Z,2.08
2022-10-05T04:24:45.751Z,2.03
2022-10-05T04:32:06.734Z,2.70
2022-10-05T04:35:48.754Z,2.10
2022-10-05T04:43:17.820Z,1.90
2022-10-05T04:46:59.794Z,1.90
2022-10-05T04:54:26.333Z,2.03
2022-10-05T04:58:14.818Z,2.08
2022-10-05T05:01:57.822Z,2.10
2022-10-05T05:06:16.431Z,1.73
2022-10-05T05:09:56.818Z,2.25
2022-10-05T05:13:50.749Z,2.70
2022-10-05T05:17:38.918Z,2.80
2022-10-05T05:21:26.757Z,2.42
2022-10-05T05:24:56.798Z,2.10
2022-10-05T05:28:37.825Z,2.58
2022-10-05T05:32:15.782Z,2.15
2022-10-05T05:35:55.773Z,1.88
2022-10-05T05:39:23.776Z,1.80
2022-10-05T05:43:01.803Z,4.70
2022-10-05T05:47:01.652Z,2.00
2022-10-05T05:50:33.809Z,1.60
2022-10-05T05:54:02.797Z,2.15
2022-10-05T05:57:58.798Z,1.75
2022-10-05T06:01:45.955Z,1.70
2022-10-05T06:05:20.808Z,1.95
2022-10-05T06:08:55.833Z,1.83
2022-10-05T06:12:27.806Z,1.98
2022-10-05T06:15:57.831Z,1.98
2022-10-05T06:19:32.847Z,1.73
2022-10-05T06:22:58.758Z,1.80
2022-10-05T06:26:31.806Z,1.70
2022-10-05T06:30:15.837Z,1.63
2022-10-05T06:33:44.803Z,1.85
2022-10-05T06:37:18.878Z,1.80
2022-10-05T06:41:14.770Z,1.80
2022-10-05T06:45:03.864Z,1.80
2022-10-05T06:48:56.815Z,1.70
2022-10-05T06:53:05.849Z,1.60
2022-10-05T06:56:38.863Z,3.60
2022-10-05T07:00:04.412Z,1.70
2022-10-05T07:03:44.814Z,1.70
2022-10-05T07:07:38.806Z,2.08
2022-10-05T07:11:18.835Z,2.25
2022-10-05T07:15:07.845Z,1.60
2022-10-05T07:19:07.854Z,2.60
2022-10-05T07:22:47.796Z,2.35
2022-10-05T07:26:22.821Z,1.60
2022-10-05T07:30:02.932Z,2.08
2022-10-05T07:33:38.818Z,1.60
2022-10-05T07:37:45.866Z,2.40
2022-10-05T07:41:15.836Z,2.33
2022-10-05T07:44:48.832Z,1.95
2022-10-05T07:48:18.885Z,1.90
2022-10-05T07:51:55.798Z,2.00
2022-10-05T07:55:37.834Z,2.08
2022-10-05T07:59:15.878Z,1.80
2022-10-05T08:02:46.033Z,2.00
2022-10-05T08:06:03.871Z,1.52
2022-10-05T08:09:44.809Z,2.20
2022-10-05T08:13:15.898Z,2.20
2022-10-05T08:16:42.855Z,2.53
2022-10-05T08:20:39.850Z,1.45
2022-10-05T08:24:14.884Z,1.40
2022-10-05T08:28:00.894Z,1.88
2022-10-05T08:31:34.920Z,1.88
2022-10-05T08:35:45.865Z,1.60
2022-10-05T08:39:11.869Z,1.40
2022-10-05T08:42:57.862Z,1.70
2022-10-05T08:46:28.984Z,2.15
2022-10-05T08:50:04.826Z,1.60
2022-10-05T08:53:46.850Z,4.35
2022-10-05T09:00:29.723Z,2.88
2022-10-05T09:04:44.877Z,1.83
2022-10-05T09:08:43.892Z,2.30
2022-10-05T09:12:31.828Z,1.98
2022-10-05T09:16:14.979Z,1.50
2022-10-05T09:20:01.877Z,2.40
2022-10-05T09:23:55.850Z,2.70
2022-10-05T09:27:25.861Z,3.13
2022-10-05T09:31:40.888Z,1.60
2022-10-05T09:35:15.828Z,1.23
2022-10-05T09:39:06.861Z,1.30
2022-10-05T09:42:54.900Z,1.40
2022-10-05T09:46:30.924Z,1.63
2022-10-05T09:50:36.867Z,1.95
2022-10-05T09:54:31.859Z,1.25
2022-10-05T09:57:55.858Z,1.80
2022-10-05T10:01:42.905Z,1.85
2022-10-05T10:05:13.924Z,2.00
2022-10-05T10:09:15.905Z,1.80
2022-10-05T10:13:09.922Z,1.38
2022-10-05T10:16:57.885Z,1.50
2022-10-05T10:20:27.865Z,1.38
2022-10-05T10:24:09.886Z,2.03
2022-10-05T10:28:04.874Z,1.52
2022-10-05T10:31:45.122Z,1.63
2022-10-05T10:39:31.878Z,1.75
2022-10-05T10:43:12.878Z,1.70
2022-10-05T10:47:00.906Z,1.83
2022-10-05T10:50:55.882Z,1.45
2022-10-05T10:54:28.905Z,1.75
2022-10-05T11:01:57.947Z,1.80
2022-10-05T11:05:50.871Z,2.53
2022-10-05T11:09:38.872Z,2.25
2022-10-05T11:13:26.888Z,1.60
2022-10-05T11:16:53.929Z,1.52
2022-10-05T11:20:26.888Z,1.88
2022-10-05T11:24:32.898Z,1.67
2022-10-05T11:28:04.017Z,2.20
2022-10-05T11:31:52.083Z,1.85
2022-10-05T11:35:44.899Z,1.80
2022-10-05T11:39:44.919Z,1.95
2022-10-05T11:43:27.952Z,1.30
2022-10-05T11:50:38.952Z,1.45
2022-10-05T11:54:12.895Z,1.10
2022-10-05T11:57:45.943Z,0.98
2022-10-05T12:01:20.861Z,1.10
2022-10-05T12:04:49.944Z,1.05
2022-10-05T12:08:31.927Z,1.00
2022-10-05T12:12:25.942Z,1.00
2022-10-05T12:16:12.938Z,1.00
2022-10-05T12:19:50.920Z,1.05
2022-10-05T12:23:28.945Z,1.15
2022-10-05T12:27:00.914Z,1.20
2022-10-05T12:30:42.911Z,1.20
2022-10-05T12:34:25.957Z,1.20
2022-10-05T12:37:56.894Z,1.13
2022-10-05T12:41:27.858Z,1.30
2022-10-05T12:45:17.896Z,1.05
2022-10-05T12:48:56.962Z,1.60
2022-10-05T12:52:23.876Z,1.08
2022-10-05T12:56:17.976Z,1.30
2022-10-05T12:59:48.881Z,1.00
2022-10-05T13:03:31.961Z,1.10
2022-10-05T13:06:56.496Z,1.17
2022-10-05T13:10:41.925Z,1.20
2022-10-05T13:14:30.938Z,1.23
2022-10-05T13:18:00.962Z,1.13
2022-10-05T13:21:27.911Z,1.35
2022-10-05T13:25:27.921Z,1.10
2022-10-05T13:29:03.156Z,2.00
2022-10-05T13:32:38.924Z,2.55
2022-10-05T13:36:32.933Z,1.70
2022-10-05T13:40:27.987Z,1.35
2022-10-05T13:43:59.935Z,1.48
2022-10-05T13:47:53.984Z,1.60
2022-10-05T13:51:21.928Z,1.83
2022-10-05T13:54:56.948Z,1.27
2022-10-05T13:58:47.966Z,1.13
2022-10-05T14:02:19.981Z,1.27
2022-10-05T14:05:45.949Z,1.37
2022-10-05T14:09:04.535Z,1.35
2022-10-05T14:12:28.997Z,1.30
2022-10-05T14:15:53.904Z,1.45
2022-10-05T14:19:21.955Z,1.02
2022-10-05T14:22:56.990Z,0.98
2022-10-05T14:26:34.961Z,0.80
2022-10-05T14:29:59.018Z,1.00
2022-10-05T14:33:29.923Z,0.98
2022-10-05T14:36:53.969Z,1.30
2022-10-05T14:40:46.910Z,1.02
2022-10-05T14:44:38.021Z,1.10
2022-10-05T14:48:09.958Z,1.38
2022-10-05T14:51:46.957Z,1.25
2022-10-05T14:55:20.967Z,1.38
2022-10-05T14:59:35.966Z,1.35
2022-10-05T15:03:26.954Z,1.35
2022-10-05T15:07:19.077Z,1.23
2022-10-05T15:10:45.976Z,1.40
2022-10-05T15:14:11.002Z,1.40
2022-10-05T15:17:45.937Z,1.65
2022-10-05T15:21:11.006Z,1.50
2022-10-05T15:24:43.613Z,1.45
2022-10-05T15:28:18.025Z,1.50
2022-10-05T15:32:06.934Z,1.55
2022-10-05T15:35:46.981Z,1.63
2022-10-05T15:39:37.960Z,1.60
2022-10-05T15:43:01.934Z,1.50
2022-10-05T15:46:47.956Z,1.67
2022-10-05T15:50:17.950Z,2.22
2022-10-05T15:53:47.961Z,1.70
2022-10-05T15:57:17.021Z,1.60
2022-10-05T16:00:40.985Z,1.33
2022-10-05T16:04:29.990Z,1.50
2022-10-05T16:08:14.523Z,1.70
2022-10-05T16:11:41.027Z,1.50
2022-10-05T16:15:29.925Z,1.90
2022-10-05T16:19:14.966Z,1.50
2022-10-05T16:22:55.953Z,1.60
2022-10-05T16:26:32.019Z,1.77
2022-10-05T16:30:23.993Z,1.55
2022-10-05T16:34:06.007Z,1.25
2022-10-05T16:37:42.972Z,1.80
2022-10-05T16:41:22.942Z,1.17
2022-10-05T16:45:14.974Z,1.70
2022-10-05T16:48:53.009Z,1.10
2022-10-05T16:52:19.019Z,1.60
2022-10-05T16:55:53.033Z,1.48
2022-10-05T16:59:40.989Z,1.70
2022-10-05T17:03:12.001Z,1.10
2022-10-05T17:07:13.016Z,1.10
2022-10-05T17:11:04.011Z,0.90
2022-10-05T17:14:57.006Z,1.23
2022-10-05T17:18:45.002Z,0.93
2022-10-05T17:22:17.994Z,0.80
2022-10-05T17:25:59.030Z,0.82
2022-10-05T17:29:41.008Z,0.70
2022-10-05T17:33:16.012Z,0.60
2022-10-05T17:36:54.963Z,0.90
2022-10-05T17:40:40.009Z,0.85
2022-10-05T17:44:31.958Z,0.90
2022-10-05T17:48:14.050Z,1.58
2022-10-05T17:52:02.961Z,1.17
2022-10-05T17:55:50.001Z,1.58
2022-10-05T17:59:16.955Z,1.52
2022-10-05T18:02:51.094Z,1.00
2022-10-05T18:06:40.032Z,1.48
2022-10-05T18:10:16.043Z,1.70
2022-10-05T18:14:33.000Z,1.50
2022-10-05T18:18:30.959Z,1.77
2022-10-05T18:21:55.050Z,1.40
2022-10-05T18:25:27.017Z,1.45
2022-10-05T18:29:07.056Z,1.50
2022-10-05T18:32:39.048Z,1.70
2022-10-05T18:36:10.964Z,2.00
2022-10-05T18:39:56.021Z,1.70
2022-10-05T18:43:39.009Z,1.67
2022-10-05T18:47:06.061Z,1.45
2022-10-05T18:51:14.050Z,1.60
2022-10-05T18:55:04.991Z,1.27
2022-10-05T18:58:41.088Z,1.50
2022-10-05T19:02:16.109Z,1.25
2022-10-05T19:06:00.032Z,1.45
2022-10-05T19:09:49.056Z,1.33
2022-10-05T19:13:50.061Z,2.97
2022-10-05T19:17:45.021Z,2.80
2022-10-05T19:21:10.029Z,1.70
2022-10-05T19:25:15.052Z,1.65
2022-10-05T19:29:04.023Z,1.40
2022-10-05T19:32:48.035Z,1.27
2022-10-05T19:40:11.076Z,1.80
2022-10-05T19:43:44.035Z,2.05
2022-10-05T19:47:49.028Z,2.08
2022-10-05T19:51:18.083Z,2.00
2022-10-05T19:54:42.993Z,1.85
2022-10-05T19:58:09.090Z,1.92
2022-10-05T20:01:49.110Z,1.80
2022-10-05T20:05:22.037Z,1.65
2022-10-05T20:08:57.078Z,1.00
2022-10-05T20:12:20.065Z,1.08
2022-10-05T20:16:12.097Z,1.20
2022-10-05T20:20:02.054Z,1.00
2022-10-05T20:23:38.090Z,1.00
2022-10-05T20:27:15.784Z,0.93
2022-10-05T20:30:44.079Z,1.30
2022-10-05T20:34:08.090Z,1.50
2022-10-05T20:37:34.028Z,1.15
2022-10-05T20:40:59.085Z,1.65
2022-10-05T20:44:23.033Z,1.20
2022-10-05T20:47:48.114Z,1.20
2022-10-05T20:51:11.131Z,1.00
2022-10-05T20:54:35.073Z,0.93
2022-10-05T20:57:58.048Z,1.08
2022-10-05T21:01:27.089Z,1.00
2022-10-05T21:04:55.216Z,1.08
2022-10-05T21:08:19.069Z,0.73
2022-10-05T21:11:43.060Z,0.82
2022-10-05T21:15:08.074Z,1.05
2022-10-05T21:18:33.060Z,0.98
2022-10-05T21:21:59.091Z,1.10
2022-10-05T21:25:23.106Z,1.00
2022-10-05T21:28:47.114Z,1.02
2022-10-05T21:32:11.095Z,0.90
2022-10-05T21:35:35.056Z,1.08
2022-10-05T21:38:59.107Z,1.10
2022-10-05T21:42:23.601Z,1.00
2022-10-05T21:45:48.155Z,1.20
2022-10-05T21:49:14.159Z,1.20
2022-10-05T21:52:41.099Z,1.17
2022-10-05T21:56:05.048Z,0.82
2022-10-05T21:59:31.107Z,1.35
2022-10-05T22:02:55.059Z,1.00
2022-10-05T22:06:19.062Z,0.93
2022-10-05T22:09:43.090Z,1.10
2022-10-05T22:13:07.112Z,1.30
2022-10-05T22:16:32.162Z,0.88
2022-10-05T22:19:56.108Z,0.80
2022-10-05T22:23:21.120Z,0.90
2022-10-05T22:26:45.138Z,0.85
2022-10-05T22:30:10.095Z,0.88
2022-10-05T22:33:35.093Z,0.80
2022-10-05T22:37:00.101Z,1.00
2022-10-05T22:40:19.103Z,0.70
2022-10-05T22:43:43.096Z,0.90
2022-10-05T22:47:07.088Z,0.70
2022-10-05T22:50:32.062Z,0.70
2022-10-05T22:53:56.104Z,0.50
2022-10-05T22:57:20.097Z,0.60
2022-10-05T23:00:57.975Z,0.60
2022-10-05T23:04:22.125Z,0.60
2022-10-05T23:07:51.056Z,0.70
2022-10-05T23:11:19.087Z,0.60
2022-10-05T23:14:43.069Z,0.80
2022-10-05T23:18:09.117Z,0.73
2022-10-05T23:21:34.110Z,0.50
2022-10-05T23:24:51.132Z,0.60
2022-10-05T23:28:17.159Z,0.45
2022-10-05T23:31:45.126Z,0.90
2022-10-05T23:35:09.071Z,0.90
2022-10-05T23:38:33.153Z,0.75
2022-10-05T23:41:57.147Z,1.48
2022-10-05T23:45:22.092Z,0.60
2022-10-05T23:48:46.110Z,0.85
2022-10-05T23:52:11.124Z,0.50
2022-10-05T23:55:35.154Z,0.57
2022-10-05T23:58:59.134Z,1.08
